createdAt,value
2024-01-04T00:00:39.911Z,8.30
2024-01-04T00:03:06.720Z,8.30
2024-01-04T00:05:33.472Z,8.20
2024-01-04T00:08:00.203Z,8.10
2024-01-04T00:10:26.906Z,8.20
2024-01-04T00:12:54.414Z,8.20
2024-01-04T00:15:21.295Z,8.10
2024-01-04T00:17:48.113Z,8.30
2024-01-04T00:20:14.851Z,8.30
2024-01-04T00:22:41.566Z,8.20
2024-01-04T00:25:10.847Z,8.20
2024-01-04T00:27:37.576Z,8.20
2024-01-04T00:30:05.035Z,8.10
2024-01-04T00:32:32.076Z,8.10
2024-01-04T00:34:59.115Z,8.10
2024-01-04T00:37:26.215Z,8.10
2024-01-04T00:39:53.593Z,8.20
2024-01-04T00:42:20.257Z,8.20
2024-01-04T00:44:46.934Z,8.30
2024-01-04T00:47:13.713Z,8.30
2024-01-04T00:49:40.764Z,8.40
2024-01-04T00:52:07.500Z,8.30
2024-01-04T00:54:34.768Z,8.30
2024-01-04T00:57:01.573Z,8.40
2024-01-04T00:59:28.231Z,8.50
2024-01-04T01:01:56.023Z,8.40
2024-01-04T01:04:22.733Z,8.50
2024-01-04T01:06:49.571Z,8.40
2024-01-04T01:09:16.536Z,8.40
2024-01-04T01:11:43.321Z,8.50
2024-01-04T01:14:10.503Z,8.50
2024-01-04T01:16:37.210Z,8.40
2024-01-04T01:19:04.898Z,8.50
2024-01-04T01:21:32.427Z,8.40
2024-01-04T01:23:59.167Z,8.50
2024-01-04T01:26:25.866Z,8.50
2024-01-04T01:28:52.556Z,8.50
2024-01-04T01:31:19.262Z,8.60
2024-01-04T01:33:46.811Z,8.60
2024-01-04T01:36:13.699Z,8.60
2024-01-04T01:38:40.546Z,8.50
2024-01-04T01:41:07.300Z,8.50
2024-01-04T01:43:34.022Z,8.40
2024-01-04T01:46:01.345Z,8.40
2024-01-04T01:48:28.610Z,8.50
2024-01-04T01:50:55.927Z,8.50
2024-01-04T01:53:23.469Z,8.50
2024-01-04T01:55:50.456Z,8.50
2024-01-04T01:58:17.328Z,8.60
2024-01-04T02:00:44.404Z,8.60
2024-01-04T02:03:12.139Z,8.50
2024-01-04T02:05:39.070Z,8.50
2024-01-04T02:08:06.439Z,8.50
2024-01-04T02:10:33.198Z,8.50
2024-01-04T02:13:00.340Z,8.50
2024-01-04T02:15:27.112Z,8.50
2024-01-04T02:17:54.386Z,8.50
2024-01-04T02:20:21.809Z,8.50
2024-01-04T02:22:49.422Z,8.40
2024-01-04T02:25:16.838Z,8.40
2024-01-04T02:27:43.524Z,8.50
2024-01-04T02:30:12.831Z,8.50
2024-01-04T02:32:39.935Z,8.40
2024-01-04T02:35:07.204Z,8.40
2024-01-04T02:37:33.945Z,8.40
2024-01-04T02:40:00.675Z,8.50
2024-01-04T02:42:27.989Z,8.40
2024-01-04T02:44:54.768Z,8.40
2024-01-04T02:47:21.573Z,8.40
2024-01-04T02:49:48.633Z,8.50
2024-01-04T02:52:17.117Z,8.40
2024-01-04T02:54:44.149Z,8.50
2024-01-04T02:57:11.903Z,8.50
2024-01-04T02:59:38.656Z,8.50
2024-01-04T03:02:05.775Z,8.50
2024-01-04T03:04:32.548Z,8.40
2024-01-04T03:06:59.207Z,8.50
2024-01-04T03:09:25.992Z,8.60
2024-01-04T03:11:52.729Z,8.60
2024-01-04T03:14:19.675Z,8.70
2024-01-04T03:16:46.381Z,8.60
2024-01-04T03:19:13.460Z,8.50
2024-01-04T03:21:40.362Z,8.50
2024-01-04T03:24:07.144Z,8.50
2024-01-04T03:26:34.051Z,8.50
2024-01-04T03:29:00.794Z,8.50
2024-01-04T03:31:27.807Z,8.50
2024-01-04T03:33:55.058Z,8.40
2024-01-04T03:36:21.853Z,8.40
2024-01-04T03:38:48.613Z,8.50
2024-01-04T03:41:15.483Z,8.50
2024-01-04T03:43:42.202Z,8.50
2024-01-04T03:46:14.830Z,8.60
2024-01-04T03:48:42.433Z,8.60
2024-01-04T03:51:12.234Z,8.70
2024-01-04T03:53:38.940Z,8.80
2024-01-04T03:56:05.791Z,8.70
2024-01-04T03:58:33.882Z,8.60
2024-01-04T04:01:02.979Z,8.60
2024-01-04T04:03:30.394Z,8.60
2024-01-04T04:05:57.269Z,8.50
2024-01-04T04:08:24.941Z,8.50
2024-01-04T04:10:51.593Z,8.60
2024-01-04T04:13:18.374Z,8.50
2024-01-04T04:15:45.117Z,8.60
2024-01-04T04:18:11.884Z,8.70
2024-01-04T04:20:38.686Z,8.60
2024-01-04T04:23:05.730Z,8.60
2024-01-04T04:25:32.434Z,8.60
2024-01-04T04:27:59.142Z,8.60
2024-01-04T04:30:26.260Z,8.50
2024-01-04T04:32:53.230Z,8.60
2024-01-04T04:35:19.937Z,8.60
2024-01-04T04:37:46.632Z,8.50
2024-01-04T04:40:15.826Z,8.50
2024-01-04T04:42:43.013Z,8.50
2024-01-04T04:45:09.969Z,8.50
2024-01-04T04:47:37.120Z,8.50
2024-01-04T04:50:04.554Z,8.50
2024-01-04T04:52:31.269Z,8.50
2024-01-04T04:54:57.958Z,8.50
2024-01-04T04:57:24.806Z,8.40
2024-01-04T04:59:51.585Z,8.50
2024-01-04T05:02:18.315Z,8.50
2024-01-04T05:04:45.552Z,8.50
2024-01-04T05:07:12.306Z,8.50
2024-01-04T05:09:38.985Z,8.50
2024-01-04T05:12:05.786Z,8.50
2024-01-04T05:14:32.517Z,8.40
2024-01-04T05:16:59.279Z,8.50
2024-01-04T05:19:26.097Z,8.50
2024-01-04T05:21:53.278Z,8.50
2024-01-04T05:24:20.397Z,8.50
2024-01-04T05:26:47.152Z,8.50
2024-01-04T05:29:13.873Z,8.50
2024-01-04T05:31:40.589Z,8.40
2024-01-04T05:34:07.556Z,8.40
2024-01-04T05:36:34.354Z,8.40
2024-01-04T05:39:01.125Z,8.40
2024-01-04T05:41:27.833Z,8.40
2024-01-04T05:43:54.489Z,8.40
2024-01-04T05:46:21.652Z,8.40
2024-01-04T05:48:48.563Z,8.30
2024-01-04T05:51:15.364Z,8.30
2024-01-04T05:53:42.153Z,8.30
2024-01-04T05:56:08.936Z,8.30
2024-01-04T05:58:35.642Z,8.30
2024-01-04T06:01:02.419Z,8.20
2024-01-04T06:03:29.261Z,8.20
2024-01-04T06:05:56.465Z,8.20
2024-01-04T06:08:23.162Z,8.10
2024-01-04T06:10:49.828Z,8.10
2024-01-04T06:13:16.538Z,8.10
2024-01-04T06:15:43.305Z,8.10
2024-01-04T06:18:10.171Z,8.10
2024-01-04T06:20:39.273Z,8.10
2024-01-04T06:23:06.372Z,8.10
2024-01-04T06:25:33.105Z,8.10
2024-01-04T06:28:00.443Z,8.00
2024-01-04T06:30:27.320Z,8.00
2024-01-04T06:32:54.361Z,8.00
2024-01-04T06:35:21.199Z,7.90
2024-01-04T06:37:48.396Z,7.90
2024-01-04T06:40:16.761Z,8.00
2024-01-04T06:42:43.578Z,8.00
2024-01-04T06:45:10.364Z,8.00
2024-01-04T06:47:37.328Z,8.00
2024-01-04T06:50:14.393Z,8.00
2024-01-04T06:52:45.126Z,7.90
2024-01-04T06:55:12.969Z,7.90
2024-01-04T06:57:39.702Z,8.00
2024-01-04T07:00:08.910Z,7.90
2024-01-04T07:02:36.707Z,8.10
2024-01-04T07:05:04.674Z,8.00
2024-01-04T07:07:35.674Z,8.10
2024-01-04T07:10:02.925Z,8.20
2024-01-04T07:12:30.049Z,8.10
2024-01-04T07:14:56.940Z,8.00
2024-01-04T07:17:24.695Z,8.00
2024-01-04T07:19:51.723Z,8.00
2024-01-04T07:22:18.607Z,8.10
2024-01-04T07:24:45.372Z,8.00
2024-01-04T07:27:12.388Z,8.00
2024-01-04T07:29:40.193Z,8.00
2024-01-04T07:32:07.249Z,8.10
2024-01-04T07:34:38.036Z,8.10
2024-01-04T07:37:04.973Z,8.00
2024-01-04T07:39:35.189Z,7.90
2024-01-04T07:42:01.973Z,8.00
2024-01-04T07:44:28.846Z,8.00
2024-01-04T07:46:56.301Z,8.10
2024-01-04T07:49:23.149Z,8.10
2024-01-04T07:51:51.699Z,8.00
2024-01-04T07:54:21.575Z,8.00
2024-01-04T07:56:48.406Z,8.00
2024-01-04T07:59:15.150Z,8.00
2024-01-04T08:01:42.553Z,8.00
2024-01-04T08:04:09.301Z,7.90
2024-01-04T08:06:36.078Z,8.30
2024-01-04T08:09:04.301Z,8.20
2024-01-04T08:11:30.969Z,8.20
2024-01-04T08:13:57.617Z,8.10
2024-01-04T08:16:24.384Z,8.10
2024-01-04T08:18:51.389Z,8.30
2024-01-04T08:21:20.019Z,9.30
2024-01-04T08:23:51.181Z,9.70
2024-01-04T08:26:18.013Z,9.30
2024-01-04T08:28:44.782Z,9.00
2024-01-04T08:31:12.186Z,8.90
2024-01-04T08:33:38.967Z,8.80
2024-01-04T08:36:06.198Z,8.70
2024-01-04T08:38:33.323Z,8.50
2024-01-04T08:41:01.012Z,8.50
2024-01-04T08:43:28.016Z,8.40
2024-01-04T08:45:54.689Z,8.30
2024-01-04T08:48:21.743Z,8.30
2024-01-04T08:50:48.568Z,8.20
2024-01-04T08:53:21.140Z,8.20
2024-01-04T08:55:49.568Z,8.10
2024-01-04T08:58:16.893Z,8.10
2024-01-04T09:00:43.775Z,8.20
2024-01-04T09:03:10.493Z,8.20
2024-01-04T09:05:37.421Z,8.30
2024-01-04T09:08:06.087Z,8.20
2024-01-04T09:10:32.897Z,8.20
2024-01-04T09:12:59.553Z,8.20
2024-01-04T09:15:26.300Z,8.30
2024-01-04T09:17:53.812Z,8.20
2024-01-04T09:20:20.543Z,8.30
2024-01-04T09:22:48.404Z,8.30
2024-01-04T09:25:15.213Z,8.40
2024-01-04T09:27:41.843Z,8.40
2024-01-04T09:30:10.029Z,8.40
2024-01-04T09:32:36.982Z,8.60
2024-01-04T09:35:03.886Z,8.50
2024-01-04T09:37:30.511Z,8.50
2024-01-04T09:39:57.229Z,8.50
2024-01-04T09:42:27.020Z,8.40
2024-01-04T09:44:55.503Z,8.40
2024-01-04T09:47:25.097Z,8.50
2024-01-04T09:49:52.905Z,8.50
2024-01-04T09:52:22.366Z,8.60
2024-01-04T09:54:52.291Z,8.60
2024-01-04T09:57:20.161Z,8.60
2024-01-04T09:59:46.952Z,8.50
2024-01-04T10:02:15.836Z,8.50
2024-01-04T10:04:44.970Z,8.40
2024-01-04T10:07:20.293Z,8.50
2024-01-04T10:09:47.571Z,8.50
2024-01-04T10:12:16.099Z,8.40
2024-01-04T10:14:42.759Z,8.40
2024-01-04T10:17:12.632Z,8.30
2024-01-04T10:19:40.955Z,8.40
2024-01-04T10:22:09.509Z,8.50
2024-01-04T10:24:42.499Z,8.50
2024-01-04T10:27:10.260Z,8.50
2024-01-04T10:29:38.547Z,8.40
2024-01-04T10:32:11.935Z,8.50
2024-01-04T10:34:39.683Z,8.40
2024-01-04T10:37:12.312Z,8.50
2024-01-04T10:39:39.794Z,8.50
2024-01-04T10:42:08.360Z,8.50
2024-01-04T10:44:36.466Z,8.60
2024-01-04T10:47:05.000Z,8.50
2024-01-04T10:49:31.979Z,8.50
2024-01-04T10:51:59.975Z,8.50
2024-01-04T10:54:32.870Z,8.50
2024-01-04T10:57:01.420Z,8.50
2024-01-04T10:59:30.050Z,8.60
2024-01-04T11:01:58.979Z,8.50
2024-01-04T11:04:28.303Z,8.50
2024-01-04T11:06:58.316Z,8.50
2024-01-04T11:09:27.161Z,8.40
2024-01-04T11:11:55.023Z,8.50
2024-01-04T11:14:23.112Z,8.50
2024-01-04T11:17:11.119Z,8.50
2024-01-04T11:20:11.154Z,8.50
2024-01-04T11:22:51.467Z,8.50
2024-01-04T11:25:36.495Z,8.60
2024-01-04T11:28:05.747Z,8.60
2024-01-04T11:30:33.040Z,8.60
2024-01-04T11:33:00.706Z,8.70
2024-01-04T11:35:28.964Z,8.70
2024-01-04T11:37:56.471Z,8.70
2024-01-04T11:40:30.609Z,8.80
2024-01-04T11:42:57.904Z,8.70
2024-01-04T11:45:26.536Z,8.70
2024-01-04T11:47:54.299Z,8.70
2024-01-04T11:50:26.095Z,8.70
2024-01-04T11:53:07.288Z,8.70
2024-01-04T11:55:37.053Z,8.70
2024-01-04T11:58:11.445Z,8.60
2024-01-04T12:00:39.792Z,8.60
2024-01-04T12:03:16.337Z,8.60
2024-01-04T12:05:45.482Z,8.60
2024-01-04T12:08:28.782Z,8.60
2024-01-04T12:10:58.475Z,8.60
2024-01-04T12:13:25.611Z,8.80
2024-01-04T12:15:52.716Z,8.80
2024-01-04T12:18:22.101Z,8.80
2024-01-04T12:20:53.165Z,8.90
2024-01-04T12:23:20.228Z,8.80
2024-01-04T12:25:47.122Z,8.80
2024-01-04T12:28:14.814Z,8.70
2024-01-04T12:30:42.049Z,8.70
2024-01-04T12:33:12.110Z,8.80
2024-01-04T12:35:39.991Z,8.70
2024-01-04T12:38:07.333Z,8.60
2024-01-04T12:40:41.619Z,8.60
2024-01-04T12:43:10.001Z,8.60
2024-01-04T12:45:36.848Z,8.60
2024-01-04T12:48:04.739Z,8.50
2024-01-04T12:50:31.753Z,8.50
2024-01-04T12:52:58.542Z,8.60
2024-01-04T12:55:28.325Z,8.50
2024-01-04T12:57:59.622Z,8.60
2024-01-04T13:00:26.576Z,8.50
2024-01-04T13:02:54.306Z,8.50
2024-01-04T13:05:21.679Z,8.50
2024-01-04T13:07:48.882Z,8.50
2024-01-04T13:10:16.496Z,8.50
2024-01-04T13:12:43.140Z,8.60
2024-01-04T13:15:10.248Z,8.60
2024-01-04T13:17:37.014Z,8.50
2024-01-04T13:20:06.547Z,8.60
2024-01-04T13:22:33.982Z,8.60
2024-01-04T13:25:01.035Z,8.60
2024-01-04T13:27:31.303Z,8.60
2024-01-04T13:29:58.688Z,8.70
2024-01-04T13:32:25.409Z,8.70
2024-01-04T13:34:52.428Z,8.70
2024-01-04T13:37:19.232Z,8.70
2024-01-04T13:39:46.768Z,8.80
2024-01-04T13:42:13.860Z,8.80
2024-01-04T13:44:40.634Z,8.80
2024-01-04T13:47:08.614Z,8.80
2024-01-04T13:49:35.718Z,8.70
2024-01-04T13:52:04.067Z,8.80
2024-01-04T13:54:31.118Z,8.80
2024-01-04T13:56:59.002Z,9.10
2024-01-04T13:59:33.254Z,9.10
2024-01-04T14:02:00.450Z,9.00
2024-01-04T14:04:27.130Z,8.90
2024-01-04T14:06:54.188Z,8.90
2024-01-04T14:09:21.945Z,8.80
2024-01-04T14:11:48.687Z,8.90
2024-01-04T14:14:17.500Z,8.90
2024-01-04T14:16:44.857Z,8.90
2024-01-04T14:19:11.598Z,8.90
2024-01-04T14:21:38.594Z,8.90
2024-01-04T14:24:06.640Z,8.90
2024-01-04T14:26:33.729Z,9.00
2024-01-04T14:29:01.121Z,9.00
2024-01-04T14:31:29.268Z,9.00
2024-01-04T14:33:56.476Z,9.10
2024-01-04T14:36:23.471Z,9.00
2024-01-04T14:38:50.209Z,8.90
2024-01-04T14:41:17.241Z,9.00
2024-01-04T14:43:44.201Z,9.00
2024-01-04T14:46:24.494Z,9.00
2024-01-04T14:48:51.297Z,9.10
2024-01-04T14:51:25.312Z,9.00
2024-01-04T14:53:52.332Z,9.00
2024-01-04T14:56:19.244Z,9.80
2024-01-04T14:58:49.340Z,9.60
2024-01-04T15:01:22.045Z,9.50
2024-01-04T15:03:53.366Z,9.30
2024-01-04T15:06:20.432Z,9.30
2024-01-04T15:08:47.202Z,9.30
2024-01-04T15:11:14.325Z,9.10
2024-01-04T15:13:40.995Z,9.00
2024-01-04T15:16:07.686Z,9.10
2024-01-04T15:18:34.440Z,9.00
2024-01-04T15:21:01.369Z,9.00
2024-01-04T15:23:28.742Z,9.00
2024-01-04T15:25:55.429Z,9.00
2024-01-04T15:28:22.351Z,9.00
2024-01-04T15:30:49.307Z,9.00
2024-01-04T15:33:16.376Z,9.00
2024-01-04T15:35:43.122Z,9.00
2024-01-04T15:38:10.937Z,9.10
2024-01-04T15:40:37.741Z,9.00
2024-01-04T15:43:04.888Z,9.00
2024-01-04T15:45:32.122Z,9.00
2024-01-04T15:47:59.110Z,9.10
2024-01-04T15:50:26.401Z,9.10
2024-01-04T15:52:53.244Z,9.10
2024-01-04T15:55:19.901Z,9.10
2024-01-04T15:57:46.971Z,9.10
2024-01-04T16:00:14.610Z,9.10
2024-01-04T16:02:41.292Z,9.10
2024-01-04T16:05:10.835Z,9.10
2024-01-04T16:07:38.070Z,9.00
2024-01-04T16:10:05.596Z,9.00
2024-01-04T16:12:32.306Z,8.90
2024-01-04T16:14:59.738Z,8.80
2024-01-04T16:17:26.631Z,8.80
2024-01-04T16:19:53.413Z,8.80
2024-01-04T16:22:20.088Z,8.80
2024-01-04T16:24:46.825Z,8.80
2024-01-04T16:27:13.898Z,8.80
2024-01-04T16:29:40.888Z,8.90
2024-01-04T16:32:07.542Z,8.90
2024-01-04T16:34:34.572Z,8.80
2024-01-04T16:37:01.484Z,8.80
2024-01-04T16:39:31.356Z,8.80
2024-01-04T16:41:58.583Z,8.60
2024-01-04T16:44:25.768Z,8.50
2024-01-04T16:46:53.642Z,8.50
2024-01-04T16:49:20.642Z,8.60
2024-01-04T16:51:48.571Z,8.60
2024-01-04T16:54:15.518Z,8.60
2024-01-04T16:56:42.328Z,8.60
2024-01-04T16:59:08.977Z,8.60
2024-01-04T17:01:35.945Z,8.50
2024-01-04T17:04:03.631Z,8.60
2024-01-04T17:06:31.101Z,8.50
2024-01-04T17:08:57.919Z,8.50
2024-01-04T17:11:24.974Z,8.40
2024-01-04T17:13:52.149Z,8.30
2024-01-04T17:16:22.852Z,8.30
2024-01-04T17:18:51.216Z,8.30
2024-01-04T17:21:18.155Z,8.30
2024-01-04T17:23:44.895Z,8.30
2024-01-04T17:26:11.795Z,8.40
2024-01-04T17:28:41.532Z,8.30
2024-01-04T17:31:08.769Z,8.30
2024-01-04T17:33:36.130Z,8.40
2024-01-04T17:36:16.432Z,8.40
2024-01-04T17:38:50.275Z,8.40
2024-01-04T17:41:17.144Z,8.40
2024-01-04T17:43:43.805Z,8.30
2024-01-04T17:46:10.621Z,8.20
2024-01-04T17:48:37.513Z,8.20
2024-01-04T17:51:05.216Z,8.10
2024-01-04T17:53:32.155Z,8.10
2024-01-04T17:55:59.173Z,8.20
2024-01-04T17:58:25.890Z,8.20
2024-01-04T18:00:53.633Z,8.30
2024-01-04T18:03:20.770Z,8.30
2024-01-04T18:05:48.285Z,8.20
2024-01-04T18:08:16.821Z,8.10
2024-01-04T18:10:43.546Z,8.10
2024-01-04T18:13:10.984Z,8.00
2024-01-04T18:15:37.680Z,8.00
2024-01-04T18:18:04.820Z,8.00
2024-01-04T18:20:32.276Z,8.00
2024-01-04T18:23:00.315Z,7.90
2024-01-04T18:25:27.026Z,7.80
2024-01-04T18:27:53.706Z,7.80
2024-01-04T18:30:20.929Z,7.80
2024-01-04T18:32:47.866Z,7.70
2024-01-04T18:35:14.809Z,7.70
2024-01-04T18:37:41.952Z,7.70
2024-01-04T18:40:09.130Z,7.70
2024-01-04T18:42:35.819Z,7.60
2024-01-04T18:45:02.888Z,7.60
2024-01-04T18:47:29.636Z,7.60
2024-01-04T18:49:56.826Z,7.60
2024-01-04T18:52:23.485Z,7.60
2024-01-04T18:54:50.141Z,7.60
2024-01-04T18:57:16.929Z,7.50
2024-01-04T18:59:43.681Z,7.50
2024-01-04T19:02:10.754Z,7.40
2024-01-04T19:04:37.524Z,7.40
2024-01-04T19:07:04.723Z,7.40
2024-01-04T19:09:31.583Z,7.40
2024-01-04T19:11:58.460Z,7.40
2024-01-04T19:14:25.113Z,7.30
2024-01-04T19:16:51.760Z,7.30
2024-01-04T19:19:18.560Z,7.20
2024-01-04T19:21:45.382Z,7.20
2024-01-04T19:24:12.136Z,7.30
2024-01-04T19:26:39.401Z,7.20
2024-01-04T19:29:08.619Z,7.20
2024-01-04T19:31:35.512Z,7.20
2024-01-04T19:34:02.720Z,7.20
2024-01-04T19:36:30.444Z,7.30
2024-01-04T19:38:57.268Z,7.20
2024-01-04T19:41:25.307Z,7.20
2024-01-04T19:43:52.051Z,7.30
2024-01-04T19:46:20.881Z,7.20
2024-01-04T19:48:48.126Z,7.30
2024-01-04T19:51:14.873Z,7.30
2024-01-04T19:53:41.664Z,7.30
2024-01-04T19:56:09.232Z,7.30
2024-01-04T19:58:37.222Z,7.30
2024-01-04T20:01:05.211Z,7.40
2024-01-04T20:03:32.037Z,7.50
2024-01-04T20:05:58.885Z,7.50
2024-01-04T20:08:25.662Z,7.50
2024-01-04T20:10:52.340Z,7.60
2024-01-04T20:13:19.204Z,7.60
2024-01-04T20:15:45.886Z,7.70
2024-01-04T20:18:12.610Z,7.70
2024-01-04T20:20:39.318Z,7.70
2024-01-04T20:23:06.105Z,7.80
2024-01-04T20:25:33.387Z,7.80
2024-01-04T20:28:00.268Z,7.80
2024-01-04T20:30:27.124Z,7.80
2024-01-04T20:32:54.321Z,7.80
2024-01-04T20:35:21.065Z,7.80
2024-01-04T20:37:47.722Z,7.80
2024-01-04T20:40:17.620Z,7.90
2024-01-04T20:42:46.050Z,7.90
2024-01-04T20:45:13.600Z,7.80
2024-01-04T20:47:41.005Z,7.80
2024-01-04T20:50:07.822Z,7.80
2024-01-04T20:52:34.919Z,7.80
2024-01-04T20:55:02.767Z,7.80
2024-01-04T20:57:29.522Z,7.80
2024-01-04T20:59:57.606Z,7.80
2024-01-04T21:02:24.284Z,7.80
2024-01-04T21:04:50.951Z,7.80
2024-01-04T21:07:17.600Z,7.90
2024-01-04T21:09:44.283Z,7.80
2024-01-04T21:12:11.009Z,7.80
2024-01-04T21:14:38.206Z,7.80
2024-01-04T21:17:05.601Z,7.80
2024-01-04T21:19:33.950Z,7.80
2024-01-04T21:22:00.666Z,7.90
2024-01-04T21:24:27.357Z,7.90
2024-01-04T21:26:54.108Z,7.90
2024-01-04T21:29:20.766Z,7.90
2024-01-04T21:31:47.565Z,7.90
2024-01-04T21:34:14.445Z,7.80
2024-01-04T21:36:41.632Z,7.80
2024-01-04T21:39:09.053Z,7.70
2024-01-04T21:41:36.200Z,7.80
2024-01-04T21:44:02.824Z,7.70
2024-01-04T21:46:30.745Z,7.80
2024-01-04T21:48:57.510Z,7.80
2024-01-04T21:51:25.075Z,7.70
2024-01-04T21:53:52.092Z,7.70
2024-01-04T21:56:31.028Z,7.80
2024-01-04T21:58:58.081Z,7.70
2024-01-04T22:01:38.978Z,7.70
2024-01-04T22:04:06.506Z,7.80
2024-01-04T22:06:33.616Z,7.70
2024-01-04T22:09:00.489Z,7.70
2024-01-04T22:11:27.242Z,7.80
2024-01-04T22:13:56.137Z,7.80
2024-01-04T22:16:40.251Z,7.70
2024-01-04T22:19:11.248Z,7.80
2024-01-04T22:21:40.368Z,7.70
2024-01-04T22:24:07.826Z,7.80
2024-01-04T22:26:34.540Z,7.80
2024-01-04T22:29:01.200Z,7.80
2024-01-04T22:31:28.755Z,7.80
2024-01-04T22:33:55.712Z,7.80
2024-01-04T22:36:22.555Z,7.80
2024-01-04T22:38:49.227Z,7.70
2024-01-04T22:41:16.021Z,7.60
2024-01-04T22:43:42.659Z,7.70
2024-01-04T22:46:10.214Z,7.70
2024-01-04T22:48:37.058Z,7.70
2024-01-04T22:51:05.049Z,7.70
2024-01-04T22:53:31.722Z,7.70
2024-01-04T22:55:58.626Z,7.70
2024-01-04T22:58:25.267Z,7.70
2024-01-04T23:00:52.024Z,7.80
2024-01-04T23:03:18.786Z,7.80
2024-01-04T23:05:45.685Z,7.90
2024-01-04T23:08:12.556Z,7.90
2024-01-04T23:10:39.941Z,7.80
2024-01-04T23:13:06.607Z,7.90
2024-01-04T23:15:33.318Z,7.90
2024-01-04T23:18:02.032Z,7.90
2024-01-04T23:20:29.316Z,7.90
2024-01-04T23:22:55.990Z,7.80
2024-01-04T23:25:22.779Z,7.90
2024-01-04T23:27:50.201Z,7.80
2024-01-04T23:30:17.756Z,7.90
2024-01-04T23:32:45.263Z,7.90
2024-01-04T23:35:11.987Z,7.90
2024-01-04T23:37:38.688Z,7.90
2024-01-04T23:40:07.408Z,7.80
2024-01-04T23:42:34.218Z,7.80
2024-01-04T23:45:00.962Z,7.80
2024-01-04T23:47:27.854Z,7.90
2024-01-04T23:49:54.957Z,7.80
2024-01-04T23:52:22.768Z,7.90
2024-01-04T23:54:49.397Z,7.90
2024-01-04T23:57:16.811Z,7.90
2024-01-04T23:59:43.502Z,7.90
